createdAt,value
2022-08-20T00:01:29.456Z,101473.66
2022-08-20T00:03:34.691Z,101474.59
2022-08-20T00:05:40.049Z,101477.03
2022-08-20T00:07:41.595Z,101469.69
2022-08-20T00:09:43.883Z,101467.72
2022-08-20T00:11:45.395Z,101467.81
2022-08-20T00:13:49.854Z,101472.22
2022-08-20T00:15:52.665Z,101476.53
2022-08-20T00:17:55.096Z,101471.09
2022-08-20T00:19:56.780Z,101480.00
2022-08-20T00:21:58.654Z,101478.25
2022-08-20T00:24:00.223Z,101474.72
2022-08-20T00:26:01.777Z,101465.75
2022-08-20T00:28:03.981Z,101467.47
2022-08-20T00:30:10.197Z,101468.34
2022-08-20T00:32:11.738Z,101463.22
2022-08-20T00:34:13.245Z,101460.72
2022-08-20T00:36:17.530Z,101465.28
2022-08-20T00:38:19.467Z,101455.69
2022-08-20T00:40:25.100Z,101454.13
2022-08-20T00:42:26.670Z,101461.38
2022-08-20T00:44:28.959Z,101461.69
2022-08-20T00:46:31.968Z,101462.09
2022-08-20T00:48:38.418Z,101461.47
2022-08-20T00:50:39.963Z,101462.84
2022-08-20T00:52:49.799Z,101471.03
2022-08-20T00:55:00.691Z,101464.28
2022-08-20T00:57:09.741Z,101467.44
2022-08-20T00:59:15.004Z,101469.94
2022-08-20T01:01:16.977Z,101472.84
2022-08-20T01:03:20.446Z,101470.19
2022-08-20T01:05:23.615Z,101478.91
2022-08-20T01:07:34.846Z,101477.03
2022-08-20T01:09:57.553Z,101481.44
2022-08-20T01:12:00.686Z,101480.47
2022-08-20T01:14:24.023Z,101475.13
2022-08-20T01:16:31.379Z,101483.16
2022-08-20T01:18:32.966Z,101477.66
2022-08-20T01:20:39.677Z,101466.94
2022-08-20T01:23:11.890Z,101472.13
2022-08-20T01:25:23.840Z,101475.06
2022-08-20T01:27:25.653Z,101470.66
2022-08-20T01:29:31.779Z,101472.28
2022-08-20T01:31:36.531Z,101466.94
2022-08-20T01:33:38.089Z,101464.19
2022-08-20T01:35:41.860Z,101461.28
2022-08-20T01:37:43.340Z,101456.78
2022-08-20T01:39:44.918Z,101458.50
2022-08-20T01:41:49.152Z,101448.75
2022-08-20T01:43:56.940Z,101451.09
2022-08-20T01:46:00.175Z,101460.63
2022-08-20T01:48:01.732Z,101458.56
2022-08-20T01:50:16.364Z,101455.56
2022-08-20T01:52:41.389Z,101465.19
2022-08-20T01:54:43.209Z,101470.53
2022-08-20T01:57:15.689Z,101470.66
2022-08-20T01:59:17.354Z,101472.81
2022-08-20T02:01:46.439Z,101473.06
2022-08-20T02:03:49.016Z,101479.44
2022-08-20T02:05:50.589Z,101475.97
2022-08-20T02:07:52.140Z,101473.28
2022-08-20T02:09:53.663Z,101485.03
2022-08-20T02:11:57.578Z,101490.47
2022-08-20T02:13:59.204Z,101485.09
2022-08-20T02:16:00.946Z,101480.47
2022-08-20T02:18:08.371Z,101474.78
2022-08-20T02:20:15.685Z,101475.47
2022-08-20T02:22:22.163Z,101480.84
2022-08-20T02:24:23.778Z,101478.56
2022-08-20T02:26:26.842Z,101489.44
2022-08-20T02:28:28.333Z,101482.34
2022-08-20T02:30:34.862Z,101483.22
2022-08-20T02:32:40.258Z,101481.31
2022-08-20T02:34:42.016Z,101482.03
2022-08-20T02:36:46.148Z,101475.66
2022-08-20T02:38:47.736Z,101477.28
2022-08-20T02:40:50.024Z,101467.38
2022-08-20T02:42:51.925Z,101474.44
2022-08-20T02:44:54.511Z,101474.44
2022-08-20T02:46:56.060Z,101475.31
2022-08-20T02:48:58.261Z,101477.03
2022-08-20T02:51:02.777Z,101475.25
2022-08-20T02:53:04.284Z,101476.97
2022-08-20T02:55:06.166Z,101469.81
2022-08-20T02:57:13.432Z,101476.03
2022-08-20T02:59:19.721Z,101473.41
2022-08-20T03:01:21.706Z,101464.44
2022-08-20T03:03:24.160Z,101475.97
2022-08-20T03:05:25.883Z,101471.47
2022-08-20T03:07:27.449Z,101473.34
2022-08-20T03:09:28.938Z,101476.97
2022-08-20T03:11:31.567Z,101472.56
2022-08-20T03:13:33.821Z,101479.63
2022-08-20T03:15:35.317Z,101479.56
2022-08-20T03:17:37.472Z,101484.03
2022-08-20T03:19:39.105Z,101477.75
2022-08-20T03:21:40.780Z,101478.66
2022-08-20T03:23:43.153Z,101481.31
2022-08-20T03:25:45.277Z,101474.19
2022-08-20T03:27:47.317Z,101476.88
2022-08-20T03:29:55.682Z,101482.41
2022-08-20T03:31:57.811Z,101481.63
2022-08-20T03:33:59.460Z,101479.03
2022-08-20T03:36:01.029Z,101480.06
2022-08-20T03:38:08.060Z,101485.47
2022-08-20T03:40:16.347Z,101483.75
2022-08-20T03:42:17.876Z,101487.38
2022-08-20T03:44:19.389Z,101490.91
2022-08-20T03:46:23.052Z,101491.94
2022-08-20T03:48:25.718Z,101497.38
2022-08-20T03:50:30.065Z,101495.66
2022-08-20T03:52:31.653Z,101497.47
2022-08-20T03:54:33.238Z,101500.13
2022-08-20T03:56:34.715Z,101496.50
2022-08-20T03:58:36.518Z,101502.66
2022-08-20T04:00:45.961Z,101507.91
2022-08-20T04:02:47.621Z,101514.13
2022-08-20T04:04:49.144Z,101508.00
2022-08-20T04:06:50.723Z,101514.22
2022-08-20T04:08:54.080Z,101505.41
2022-08-20T04:10:59.767Z,101508.00
2022-08-20T04:13:01.690Z,101512.41
2022-08-20T04:15:03.559Z,101513.34
2022-08-20T04:17:10.618Z,101519.56
2022-08-20T04:19:12.120Z,101508.00
2022-08-20T04:21:13.796Z,101517.69
2022-08-20T04:23:15.656Z,101518.69
2022-08-20T04:25:17.173Z,101517.06
2022-08-20T04:27:19.361Z,101517.13
2022-08-20T04:29:22.654Z,101516.19
2022-08-20T04:31:33.335Z,101524.13
2022-08-20T04:33:35.413Z,101525.94
2022-08-20T04:35:37.502Z,101528.47
2022-08-20T04:37:39.589Z,101531.06
2022-08-20T04:39:41.172Z,101530.97
2022-08-20T04:41:42.901Z,101529.16
2022-08-20T04:43:44.419Z,101529.88
2022-08-20T04:45:46.647Z,101535.13
2022-08-20T04:47:49.625Z,101537.66
2022-08-20T04:49:51.209Z,101540.25
2022-08-20T04:51:59.420Z,101535.72
2022-08-20T04:54:02.585Z,101541.00
2022-08-20T04:56:04.437Z,101541.84
2022-08-20T04:58:09.635Z,101547.91
2022-08-20T05:00:16.161Z,101542.47
2022-08-20T05:02:19.095Z,101546.09
2022-08-20T05:04:20.668Z,101553.25
2022-08-20T05:06:25.771Z,101551.44
2022-08-20T05:08:27.956Z,101554.22
2022-08-20T05:10:30.062Z,101559.56
2022-08-20T05:12:31.562Z,101560.44
2022-08-20T05:14:33.126Z,101561.28
2022-08-20T05:16:38.132Z,101564.84
2022-08-20T05:18:39.758Z,101563.81
2022-08-20T05:20:42.324Z,101567.19
2022-08-20T05:22:44.401Z,101563.47
2022-08-20T05:24:45.928Z,101562.53
2022-08-20T05:26:47.597Z,101567.81
2022-08-20T05:28:54.146Z,101567.81
2022-08-20T05:31:02.344Z,101566.94
2022-08-20T05:33:06.033Z,101566.00
2022-08-20T05:35:10.300Z,101561.41
2022-08-20T05:37:11.818Z,101556.78
2022-08-20T05:39:14.463Z,101560.22
2022-08-20T05:41:28.435Z,101562.13
2022-08-20T05:43:33.472Z,101563.06
2022-08-20T05:45:39.301Z,101559.53
2022-08-20T05:47:42.722Z,101560.41
2022-08-20T05:49:46.393Z,101567.31
2022-08-20T05:51:49.336Z,101553.75
2022-08-20T05:53:50.826Z,101560.59
2022-08-20T05:55:53.433Z,101556.59
2022-08-20T05:58:00.121Z,101561.81
2022-08-20T06:00:05.019Z,101570.63
2022-08-20T06:02:26.850Z,101562.50
2022-08-20T06:04:29.709Z,101576.44
2022-08-20T06:06:44.235Z,101567.53
2022-08-20T06:08:48.257Z,101571.84
2022-08-20T06:10:49.791Z,101564.59
2022-08-20T06:12:53.180Z,101569.53
2022-08-20T06:14:54.699Z,101574.81
2022-08-20T06:17:02.890Z,101566.53
2022-08-20T06:19:05.858Z,101569.19
2022-08-20T06:21:07.385Z,101574.72
2022-08-20T06:23:09.362Z,101568.16
2022-08-20T06:25:11.028Z,101568.00
2022-08-20T06:27:15.900Z,101566.09
2022-08-20T06:29:17.417Z,101564.88
2022-08-20T06:31:18.950Z,101566.69
2022-08-20T06:33:20.524Z,101567.63
2022-08-20T06:35:22.131Z,101571.88
2022-08-20T06:37:31.110Z,101572.91
2022-08-20T06:39:33.449Z,101569.72
2022-08-20T06:41:36.931Z,101572.31
2022-08-20T06:43:38.706Z,101572.31
2022-08-20T06:45:40.470Z,101574.53
2022-08-20T06:47:45.080Z,101576.34
2022-08-20T06:49:47.653Z,101578.88
2022-08-20T06:51:51.935Z,101575.31
2022-08-20T06:53:53.793Z,101576.97
2022-08-20T06:55:57.933Z,101581.19
2022-08-20T06:58:06.378Z,101578.28
2022-08-20T07:00:13.612Z,101580.44
2022-08-20T07:02:15.267Z,101575.25
2022-08-20T07:04:17.118Z,101577.84
2022-08-20T07:06:19.022Z,101582.09
2022-08-20T07:08:22.080Z,101577.38
2022-08-20T07:10:25.246Z,101579.25
2022-08-20T07:12:26.850Z,101572.88
2022-08-20T07:14:28.402Z,101588.00
2022-08-20T07:16:30.069Z,101579.19
2022-08-20T07:18:31.909Z,101584.44
2022-08-20T07:20:36.244Z,101591.63
2022-08-20T07:22:37.853Z,101586.28
2022-08-20T07:24:41.524Z,101594.41
2022-08-20T07:26:44.085Z,101590.03
2022-08-20T07:28:46.507Z,101592.94
2022-08-20T07:31:13.651Z,101596.31
2022-08-20T07:33:17.640Z,101599.50
2022-08-20T07:35:20.104Z,101598.38
2022-08-20T07:37:23.798Z,101606.41
2022-08-20T07:39:25.690Z,101595.44
2022-08-20T07:41:27.593Z,101603.22
2022-08-20T07:43:29.561Z,101605.03
2022-08-20T07:45:31.343Z,101605.47
2022-08-20T07:47:36.053Z,101609.00
2022-08-20T07:49:39.320Z,101608.41
2022-08-20T07:51:41.067Z,101616.88
2022-08-20T07:53:42.711Z,101615.84
2022-08-20T07:55:51.148Z,101612.31
2022-08-20T07:58:08.400Z,101622.84
2022-08-20T08:00:12.253Z,101622.50
2022-08-20T08:02:13.726Z,101619.91
2022-08-20T08:04:16.019Z,101617.03
2022-08-20T08:06:29.518Z,101632.00
2022-08-20T08:08:33.114Z,101632.78
2022-08-20T08:10:36.648Z,101635.88
2022-08-20T08:12:43.017Z,101634.84
2022-08-20T08:14:46.477Z,101631.72
2022-08-20T08:16:47.994Z,101635.53
2022-08-20T08:18:56.343Z,101636.78
2022-08-20T08:20:58.013Z,101649.81
2022-08-20T08:22:59.766Z,101650.69
2022-08-20T08:25:02.553Z,101651.56
2022-08-20T08:27:04.635Z,101663.00
2022-08-20T08:29:08.890Z,101663.00
2022-08-20T08:31:11.967Z,101664.63
2022-08-20T08:33:29.008Z,101663.22
2022-08-20T08:35:34.041Z,101663.06
2022-08-20T08:37:37.683Z,101655.19
2022-08-20T08:39:39.244Z,101652.09
2022-08-20T08:41:49.475Z,101659.69
2022-08-20T08:43:53.532Z,101653.38
2022-08-20T08:46:01.546Z,101658.31
2022-08-20T08:48:04.008Z,101665.38
2022-08-20T08:50:09.763Z,101663.50
2022-08-20T08:52:14.679Z,101655.63
2022-08-20T08:54:22.236Z,101654.56
2022-08-20T08:56:27.235Z,101662.78
2022-08-20T08:58:29.057Z,101661.94
2022-08-20T09:00:30.640Z,101677.69
2022-08-20T09:02:33.657Z,101676.69
2022-08-20T09:04:39.688Z,101677.78
2022-08-20T09:06:43.454Z,101682.75
2022-08-20T09:08:55.303Z,101679.88
2022-08-20T09:11:05.276Z,101675.28
2022-08-20T09:13:07.320Z,101672.81
2022-08-20T09:15:09.208Z,101683.06
2022-08-20T09:17:10.723Z,101672.63
2022-08-20T09:19:12.505Z,101678.13
2022-08-20T09:21:14.550Z,101678.69
2022-08-20T09:23:16.351Z,101677.25
2022-08-20T09:25:18.782Z,101683.28
2022-08-20T09:27:20.357Z,101687.22
2022-08-20T09:29:21.837Z,101691.41
2022-08-20T09:31:24.356Z,101691.03
2022-08-20T09:33:26.032Z,101693.91
2022-08-20T09:35:28.616Z,101692.81
2022-08-20T09:37:36.619Z,101694.59
2022-08-20T09:39:39.366Z,101689.78
2022-08-20T09:41:41.443Z,101686.22
2022-08-20T09:43:43.011Z,101690.50
2022-08-20T09:45:44.521Z,101686.97
2022-08-20T09:47:56.608Z,101687.91
2022-08-20T09:49:58.800Z,101690.03
2022-08-20T09:52:01.472Z,101684.91
2022-08-20T09:54:03.112Z,101688.38
2022-08-20T09:56:04.799Z,101691.06
2022-08-20T09:58:15.759Z,101692.63
2022-08-20T10:00:18.122Z,101697.06
2022-08-20T10:02:19.719Z,101695.03
2022-08-20T10:04:21.369Z,101697.13
2022-08-20T10:06:23.046Z,101689.31
2022-08-20T10:08:24.547Z,101689.69
2022-08-20T10:10:26.451Z,101695.44
2022-08-20T10:12:28.243Z,101693.81
2022-08-20T10:14:29.825Z,101696.41
2022-08-20T10:16:31.903Z,101695.66
2022-08-20T10:18:34.952Z,101695.38
2022-08-20T10:20:36.792Z,101691.25
2022-08-20T10:22:38.462Z,101693.16
2022-08-20T10:24:40.014Z,101694.31
2022-08-20T10:26:41.594Z,101696.91
2022-08-20T10:28:44.065Z,101703.63
2022-08-20T10:30:45.565Z,101697.00
2022-08-20T10:32:47.575Z,101696.72
2022-08-20T10:34:49.145Z,101699.38
2022-08-20T10:36:50.721Z,101702.91
2022-08-20T10:38:52.415Z,101701.84
2022-08-20T10:40:53.956Z,101705.09
2022-08-20T10:42:55.520Z,101705.81
2022-08-20T10:44:57.006Z,101699.44
2022-08-20T10:46:58.920Z,101702.88
2022-08-20T10:49:00.448Z,101695.78
2022-08-20T10:51:01.955Z,101696.88
2022-08-20T10:53:03.625Z,101697.13
2022-08-20T10:55:05.646Z,101697.91
2022-08-20T10:57:07.901Z,101697.25
2022-08-20T10:59:09.395Z,101705.44
2022-08-20T11:01:11.026Z,101703.19
2022-08-20T11:03:12.893Z,101697.22
2022-08-20T11:05:14.490Z,101693.25
2022-08-20T11:07:55.227Z,101694.34
2022-08-20T11:09:47.975Z,101698.16
2022-08-20T11:11:49.451Z,101690.72
2022-08-20T11:13:50.967Z,101697.56
2022-08-20T11:15:52.832Z,101692.91
2022-08-20T11:17:55.325Z,101687.28
2022-08-20T11:19:58.829Z,101693.16
2022-08-20T11:22:00.373Z,101692.69
2022-08-20T11:24:03.087Z,101690.81
2022-08-20T11:26:05.038Z,101692.03
2022-08-20T11:28:07.204Z,101697.06
2022-08-20T11:30:12.474Z,101692.84
2022-08-20T11:32:14.044Z,101692.47
2022-08-20T11:34:15.568Z,101693.50
2022-08-20T11:36:17.058Z,101690.38
2022-08-20T11:38:19.391Z,101685.59
2022-08-20T11:40:21.649Z,101688.94
2022-08-20T11:42:23.192Z,101695.84
2022-08-20T11:44:24.781Z,101693.81
2022-08-20T11:46:28.597Z,101697.50
2022-08-20T11:48:30.315Z,101699.00
2022-08-20T11:50:31.969Z,101701.44
2022-08-20T11:52:34.137Z,101700.94
2022-08-20T11:54:40.376Z,101700.63
2022-08-20T11:56:42.278Z,101700.28
2022-08-20T11:58:47.812Z,101693.44
2022-08-20T12:00:49.509Z,101699.34
2022-08-20T12:02:52.275Z,101700.13
2022-08-20T12:04:55.105Z,101700.56
2022-08-20T12:06:56.572Z,101702.22
2022-08-20T12:09:02.426Z,101705.56
2022-08-20T12:11:04.486Z,101709.53
2022-08-20T12:13:07.121Z,101706.00
2022-08-20T12:15:10.638Z,101704.25
2022-08-20T12:17:19.620Z,101696.28
2022-08-20T12:19:21.161Z,101705.59
2022-08-20T12:21:22.760Z,101704.41
2022-08-20T12:23:24.266Z,101706.81
2022-08-20T12:25:26.372Z,101709.09
2022-08-20T12:27:30.826Z,101711.91
2022-08-20T12:29:33.564Z,101716.59
2022-08-20T12:31:35.029Z,101714.75
2022-08-20T12:33:36.572Z,101710.56
2022-08-20T12:35:38.143Z,101712.47
2022-08-20T12:37:40.698Z,101719.03
2022-08-20T12:39:47.099Z,101723.16
2022-08-20T12:41:48.679Z,101722.97
2022-08-20T12:43:50.191Z,101709.34
2022-08-20T12:45:52.104Z,101715.41
2022-08-20T12:48:00.945Z,101710.97
2022-08-20T12:50:07.919Z,101718.81
2022-08-20T12:52:09.647Z,101710.09
2022-08-20T12:54:11.175Z,101717.84
2022-08-20T12:56:12.706Z,101724.88
2022-08-20T12:58:14.372Z,101714.50
2022-08-20T13:00:24.240Z,101713.31
2022-08-20T13:02:26.609Z,101714.69
2022-08-20T13:04:28.114Z,101707.28
2022-08-20T13:06:29.597Z,101712.25
2022-08-20T13:08:31.352Z,101711.06
2022-08-20T13:10:35.084Z,101701.69
2022-08-20T13:12:36.606Z,101697.66
2022-08-20T13:14:38.684Z,101708.44
2022-08-20T13:16:40.276Z,101698.13
2022-08-20T13:18:41.758Z,101702.31
2022-08-20T13:20:43.456Z,101699.19
2022-08-20T13:22:45.583Z,101697.66
2022-08-20T13:24:47.123Z,101697.91
2022-08-20T13:26:49.580Z,101694.66
2022-08-20T13:28:51.121Z,101702.19
2022-08-20T13:30:52.624Z,101696.16
2022-08-20T13:32:54.660Z,101696.78
2022-08-20T13:34:56.282Z,101691.84
2022-08-20T13:36:57.840Z,101699.19
2022-08-20T13:38:59.305Z,101695.44
2022-08-20T13:41:00.884Z,101698.75
2022-08-20T13:43:06.735Z,101693.25
2022-08-20T13:45:09.271Z,101693.47
2022-08-20T13:47:25.734Z,101700.69
2022-08-20T13:49:27.371Z,101690.03
2022-08-20T13:51:35.300Z,101695.81
2022-08-20T13:53:37.811Z,101697.22
2022-08-20T13:55:39.387Z,101695.81
2022-08-20T13:57:41.445Z,101689.16
2022-08-20T13:59:45.741Z,101694.66
2022-08-20T14:01:47.305Z,101695.06
2022-08-20T14:03:48.872Z,101696.31
2022-08-20T14:05:50.376Z,101690.56
2022-08-20T14:07:52.198Z,101690.09
2022-08-20T14:10:15.881Z,101693.81
2022-08-20T14:12:17.727Z,101697.88
2022-08-20T14:14:19.281Z,101696.16
2022-08-20T14:16:27.637Z,101689.53
2022-08-20T14:18:30.821Z,101694.47
2022-08-20T14:20:33.876Z,101689.84
2022-08-20T14:22:36.821Z,101691.84
2022-08-20T14:24:38.540Z,101685.16
2022-08-20T14:26:40.133Z,101684.50
2022-08-20T14:28:41.871Z,101689.34
2022-08-20T14:30:43.636Z,101687.81
2022-08-20T14:32:45.310Z,101686.94
2022-08-20T14:34:46.886Z,101688.16
2022-08-20T14:36:48.399Z,101686.78
2022-08-20T14:38:52.189Z,101693.66
2022-08-20T14:40:53.764Z,101697.59
2022-08-20T14:42:56.054Z,101689.47
2022-08-20T14:45:06.267Z,101697.03
2022-08-20T14:47:32.225Z,101694.50
2022-08-20T14:49:33.718Z,101691.72
2022-08-20T14:51:35.456Z,101689.69
2022-08-20T14:53:40.454Z,101692.91
2022-08-20T14:55:42.359Z,101685.25
2022-08-20T14:57:44.609Z,101680.41
2022-08-20T14:59:47.051Z,101682.13
2022-08-20T15:01:48.535Z,101684.84
2022-08-20T15:03:50.052Z,101687.09
2022-08-20T15:05:52.672Z,101684.22
2022-08-20T15:07:56.796Z,101684.06
2022-08-20T15:10:00.433Z,101683.09
2022-08-20T15:12:02.316Z,101679.88
2022-08-20T15:14:03.828Z,101685.00
2022-08-20T15:16:05.457Z,101680.63
2022-08-20T15:18:07.203Z,101680.09
2022-08-20T15:20:20.258Z,101677.81
2022-08-20T15:22:23.334Z,101681.47
2022-08-20T15:24:24.827Z,101684.50
2022-08-20T15:26:26.357Z,101683.22
2022-08-20T15:28:28.031Z,101678.47
2022-08-20T15:30:31.091Z,101674.78
2022-08-20T15:32:32.733Z,101674.59
2022-08-20T15:34:38.929Z,101682.34
2022-08-20T15:36:41.521Z,101677.19
2022-08-20T15:38:43.157Z,101685.50
2022-08-20T15:40:44.655Z,101689.16
2022-08-20T15:42:46.791Z,101690.97
2022-08-20T15:44:48.660Z,101691.50
2022-08-20T15:46:50.171Z,101695.59
2022-08-20T15:48:51.940Z,101688.59
2022-08-20T15:50:53.421Z,101685.97
2022-08-20T15:52:56.402Z,101690.94
2022-08-20T15:54:58.353Z,101691.91
2022-08-20T15:57:12.025Z,101689.75
2022-08-20T15:59:29.136Z,101690.31
2022-08-20T16:01:57.909Z,101696.75
2022-08-20T16:04:22.265Z,101701.66
2022-08-20T16:06:28.204Z,101693.41
2022-08-20T16:08:53.942Z,101700.63
2022-08-20T16:11:01.476Z,101696.75
2022-08-20T16:13:09.574Z,101695.13
2022-08-20T16:15:24.451Z,101704.09
2022-08-20T16:17:40.256Z,101702.19
2022-08-20T16:20:09.062Z,101693.97
2022-08-20T16:22:16.106Z,101704.19
2022-08-20T16:24:19.805Z,101699.72
2022-08-20T16:26:43.907Z,101699.97
2022-08-20T16:29:17.511Z,101701.50
2022-08-20T16:31:22.522Z,101705.31
2022-08-20T16:33:47.510Z,101706.38
2022-08-20T16:35:54.741Z,101707.59
2022-08-20T16:38:05.853Z,101702.50
2022-08-20T16:40:19.407Z,101699.66
2022-08-20T16:42:25.552Z,101709.16
2022-08-20T16:44:33.037Z,101703.88
2022-08-20T16:46:42.242Z,101707.94
2022-08-20T16:48:58.221Z,101710.22
2022-08-20T16:51:08.755Z,101711.44
2022-08-20T16:53:18.113Z,101723.53
2022-08-20T16:55:23.083Z,101721.47
2022-08-20T16:57:27.744Z,101715.72
2022-08-20T16:59:29.709Z,101719.63
2022-08-20T17:01:31.389Z,101717.69
2022-08-20T17:03:39.469Z,101722.31
2022-08-20T17:05:47.197Z,101720.38
2022-08-20T17:07:52.832Z,101723.16
2022-08-20T17:10:09.287Z,101724.00
2022-08-20T17:12:23.924Z,101719.47
2022-08-20T17:14:25.482Z,101720.50
2022-08-20T17:16:37.293Z,101720.81
2022-08-20T17:18:41.477Z,101717.13
2022-08-20T17:20:45.284Z,101722.13
2022-08-20T17:22:53.774Z,101723.59
2022-08-20T17:24:57.060Z,101718.41
2022-08-20T17:27:02.904Z,101716.78
2022-08-20T17:29:20.226Z,101716.91
2022-08-20T17:31:43.222Z,101727.72
2022-08-20T17:33:45.127Z,101724.47
2022-08-20T17:36:04.279Z,101720.56
2022-08-20T17:38:06.129Z,101725.38
2022-08-20T17:40:11.165Z,101719.47
2022-08-20T17:42:19.773Z,101723.03
2022-08-20T17:44:34.705Z,101720.00
2022-08-20T17:46:43.875Z,101721.75
2022-08-20T17:48:48.531Z,101717.94
2022-08-20T17:50:52.335Z,101721.75
2022-08-20T17:52:58.814Z,101729.63
2022-08-20T17:55:02.724Z,101732.25
2022-08-20T17:57:14.133Z,101733.41
2022-08-20T18:00:00.369Z,101738.50
2022-08-20T18:01:46.683Z,101735.81
2022-08-20T18:03:53.273Z,101741.19
2022-08-20T18:06:02.193Z,101735.25
2022-08-20T18:08:16.480Z,101738.34
2022-08-20T18:10:23.524Z,101740.47
2022-08-20T18:12:36.865Z,101747.97
2022-08-20T18:14:57.048Z,101747.19
2022-08-20T18:17:29.563Z,101751.81
2022-08-20T18:19:52.182Z,101750.47
2022-08-20T18:22:05.635Z,101752.75
2022-08-20T18:24:18.525Z,101751.03
2022-08-20T18:26:46.319Z,101751.28
2022-08-20T18:28:56.573Z,101747.22
2022-08-20T18:31:01.865Z,101749.22
2022-08-20T18:33:08.369Z,101752.19
2022-08-20T18:35:22.286Z,101748.06
2022-08-20T18:37:27.571Z,101759.09
2022-08-20T18:39:34.937Z,101761.13
2022-08-20T18:41:55.006Z,101760.34
2022-08-20T18:44:04.266Z,101760.81
2022-08-20T18:46:18.656Z,101761.06
2022-08-20T18:48:23.051Z,101761.31
2022-08-20T18:50:30.409Z,101764.28
2022-08-20T18:52:35.329Z,101764.66
2022-08-20T18:54:37.950Z,101763.28
2022-08-20T18:56:42.689Z,101765.38
2022-08-20T18:58:57.889Z,101776.41
2022-08-20T19:01:03.438Z,101773.13
2022-08-20T19:03:07.760Z,101775.94
2022-08-20T19:05:12.157Z,101768.91
2022-08-20T19:07:16.045Z,101769.06
2022-08-20T19:09:26.316Z,101772.13
2022-08-20T19:11:53.497Z,101765.38
2022-08-20T19:14:22.561Z,101766.75
2022-08-20T19:16:43.955Z,101769.81
2022-08-20T19:18:54.289Z,101773.69
2022-08-20T19:20:59.040Z,101773.22
2022-08-20T19:23:06.751Z,101762.94
2022-08-20T19:25:09.101Z,101772.19
2022-08-20T19:27:12.578Z,101766.22
2022-08-20T19:29:19.852Z,101769.25
2022-08-20T19:31:25.324Z,101764.22
2022-08-20T19:33:30.005Z,101770.69
2022-08-20T19:35:32.459Z,101766.47
2022-08-20T19:37:51.038Z,101767.75
2022-08-20T19:39:54.010Z,101774.22
2022-08-20T19:42:22.358Z,101771.78
2022-08-20T19:44:25.601Z,101773.94
2022-08-20T19:46:40.078Z,101768.66
2022-08-20T19:48:48.148Z,101779.72
2022-08-20T19:51:04.874Z,101770.97
2022-08-20T19:53:30.361Z,101774.75
2022-08-20T19:55:35.649Z,101780.31
2022-08-20T19:57:37.140Z,101770.63
2022-08-20T19:59:51.567Z,101766.47
2022-08-20T20:02:00.044Z,101771.13
2022-08-20T20:04:03.264Z,101774.03
2022-08-20T20:06:20.259Z,101768.91
2022-08-20T20:08:24.035Z,101771.06
2022-08-20T20:10:35.650Z,101767.66
2022-08-20T20:12:39.531Z,101762.63
2022-08-20T20:14:41.407Z,101769.94
2022-08-20T20:16:45.403Z,101764.75
2022-08-20T20:19:03.776Z,101763.19
2022-08-20T20:21:23.921Z,101760.09
2022-08-20T20:23:45.474Z,101766.63
2022-08-20T20:25:56.015Z,101762.19
2022-08-20T20:28:11.765Z,101763.34
2022-08-20T20:30:14.025Z,101759.78
2022-08-20T20:32:24.437Z,101761.59
2022-08-20T20:34:36.096Z,101759.88
2022-08-20T20:37:13.121Z,101760.16
2022-08-20T20:39:28.733Z,101756.94
2022-08-20T20:41:30.883Z,101759.75
2022-08-20T20:43:34.425Z,101751.94
2022-08-20T20:45:56.027Z,101754.06
2022-08-20T20:47:58.202Z,101743.56
2022-08-20T20:50:05.523Z,101746.25
2022-08-20T20:52:19.844Z,101749.88
2022-08-20T20:54:26.712Z,101745.53
2022-08-20T20:56:32.911Z,101736.78
2022-08-20T20:58:34.655Z,101743.91
2022-08-20T21:00:36.320Z,101740.47
2022-08-20T21:02:38.091Z,101747.91
2022-08-20T21:04:42.619Z,101743.94
2022-08-20T21:06:44.517Z,101745.25
2022-08-20T21:08:46.009Z,101743.88
2022-08-20T21:10:48.963Z,101743.22
2022-08-20T21:12:53.126Z,101750.41
2022-08-20T21:14:54.981Z,101755.81
2022-08-20T21:17:00.128Z,101752.41
2022-08-20T21:19:05.589Z,101756.03
2022-08-20T21:21:08.795Z,101760.56
2022-08-20T21:23:10.376Z,101760.63
2022-08-20T21:25:12.396Z,101759.03
2022-08-20T21:27:14.170Z,101757.38
2022-08-20T21:29:18.689Z,101764.66
2022-08-20T21:31:20.277Z,101760.41
2022-08-20T21:33:22.537Z,101758.00
2022-08-20T21:35:24.160Z,101757.41
2022-08-20T21:37:25.696Z,101760.38
2022-08-20T21:39:27.208Z,101762.31
2022-08-20T21:41:30.148Z,101761.50
2022-08-20T21:43:32.738Z,101766.06
2022-08-20T21:45:34.954Z,101755.66
2022-08-20T21:47:36.606Z,101763.00
2022-08-20T21:49:38.082Z,101763.25
2022-08-20T21:51:39.674Z,101770.53
2022-08-20T21:53:41.198Z,101769.66
2022-08-20T21:55:42.697Z,101769.81
2022-08-20T21:57:46.686Z,101766.47
2022-08-20T21:59:49.016Z,101765.88
2022-08-20T22:01:51.395Z,101772.34
2022-08-20T22:03:52.965Z,101764.41
2022-08-20T22:05:55.041Z,101762.66
2022-08-20T22:07:56.537Z,101765.25
2022-08-20T22:09:58.041Z,101767.13
2022-08-20T22:12:03.749Z,101767.44
2022-08-20T22:14:08.315Z,101770.38
2022-08-20T22:16:12.917Z,101760.69
2022-08-20T22:18:16.460Z,101768.75
2022-08-20T22:20:18.102Z,101764.22
2022-08-20T22:22:20.804Z,101762.34
2022-08-20T22:24:23.513Z,101764.09
2022-08-20T22:26:27.210Z,101765.03
2022-08-20T22:28:29.009Z,101764.16
2022-08-20T22:30:31.417Z,101765.09
2022-08-20T22:32:46.859Z,101762.53
2022-08-20T22:34:53.748Z,101769.00
2022-08-20T22:36:57.273Z,101760.19
2022-08-20T22:38:58.872Z,101759.13
2022-08-20T22:41:00.454Z,101761.75
2022-08-20T22:43:02.061Z,101759.06
2022-08-20T22:45:03.810Z,101765.34
2022-08-20T22:47:08.084Z,101757.41
2022-08-20T22:49:13.171Z,101753.91
2022-08-20T22:51:27.795Z,101764.72
2022-08-20T22:53:30.305Z,101762.25
2022-08-20T22:55:31.794Z,101766.91
2022-08-20T22:57:34.211Z,101765.22
2022-08-20T22:59:46.360Z,101767.97
2022-08-20T23:01:52.818Z,101772.50
2022-08-20T23:03:57.296Z,101762.00
2022-08-20T23:05:58.867Z,101763.81
2022-08-20T23:08:01.206Z,101763.00
2022-08-20T23:10:04.308Z,101756.88
2022-08-20T23:12:06.289Z,101755.25
2022-08-20T23:14:07.769Z,101764.38
2022-08-20T23:16:09.266Z,101766.41
2022-08-20T23:18:15.793Z,101763.19
2022-08-20T23:20:18.346Z,101758.13
2022-08-20T23:22:20.292Z,101748.59
2022-08-20T23:24:22.097Z,101745.09
2022-08-20T23:26:23.675Z,101745.28
2022-08-20T23:28:26.273Z,101744.53
2022-08-20T23:30:28.073Z,101739.41
2022-08-20T23:32:29.616Z,101739.31
2022-08-20T23:34:31.149Z,101736.47
2022-08-20T23:36:34.061Z,101739.88
2022-08-20T23:38:36.327Z,101739.78
2022-08-20T23:40:38.018Z,101740.59
2022-08-20T23:42:39.719Z,101741.47
2022-08-20T23:44:41.364Z,101741.50
2022-08-20T23:46:43.083Z,101738.03
2022-08-20T23:48:44.963Z,101738.03